sensor_id;sensor_type;location;lat;lon;timestamp;P1;durP1;ratioP1;P2;durP2;ratioP2
30613;SDS011;17381;51.690;5.270;2022-08-19T04:36:39;12.32;;;7.65;;
30613;SDS011;17381;51.690;5.270;2022-08-19T10:01:05;21.30;;;11.95;;
30613;SDS011;17381;51.690;5.270;2022-08-19T10:03:42;20.85;;;11.45;;
30613;SDS011;17381;51.690;5.270;2022-08-19T10:16:04;19.45;;;11.90;;
30613;SDS011;17381;51.690;5.270;2022-08-19T10:18:50;22.35;;;11.93;;
30613;SDS011;17381;51.690;5.270;2022-08-19T10:21:51;21.08;;;12.23;;
30613;SDS011;17381;51.690;5.270;2022-08-19T10:24:36;21.50;;;13.23;;
30613;SDS011;17381;51.690;5.270;2022-08-19T10:27:31;23.13;;;13.05;;
30613;SDS011;17381;51.690;5.270;2022-08-19T10:36:48;21.55;;;12.52;;
30613;SDS011;17381;51.690;5.270;2022-08-19T10:39:59;25.52;;;14.45;;
30613;SDS011;17381;51.690;5.270;2022-08-19T10:42:47;22.15;;;13.43;;
30613;SDS011;17381;51.690;5.270;2022-08-19T10:52:37;26.65;;;15.95;;
30613;SDS011;17381;51.690;5.270;2022-08-19T11:19:08;24.85;;;14.82;;
30613;SDS011;17381;51.690;5.270;2022-08-19T11:37:42;18.67;;;11.82;;
30613;SDS011;17381;51.690;5.270;2022-08-19T11:44:11;19.92;;;11.95;;
30613;SDS011;17381;51.690;5.270;2022-08-19T11:47:24;18.70;;;10.48;;
30613;SDS011;17381;51.690;5.270;2022-08-19T11:50:19;18.48;;;11.57;;
30613;SDS011;17381;51.690;5.270;2022-08-19T11:53:30;18.60;;;11.32;;
30613;SDS011;17381;51.690;5.270;2022-08-19T11:56:25;18.63;;;10.40;;
30613;SDS011;17381;51.690;5.270;2022-08-19T11:59:27;17.80;;;11.35;;
30613;SDS011;17381;51.690;5.270;2022-08-19T12:02:28;15.63;;;9.65;;
30613;SDS011;17381;51.690;5.270;2022-08-19T12:05:26;16.58;;;9.70;;
30613;SDS011;17381;51.690;5.270;2022-08-19T12:08:27;18.13;;;10.18;;
30613;SDS011;17381;51.690;5.270;2022-08-19T12:11:20;16.35;;;7.80;;
30613;SDS011;17381;51.690;5.270;2022-08-19T12:41:20;12.98;;;8.38;;
30613;SDS011;17381;51.690;5.270;2022-08-19T12:44:23;15.00;;;9.05;;
30613;SDS011;17381;51.690;5.270;2022-08-19T12:51:41;18.85;;;10.15;;
30613;SDS011;17381;51.690;5.270;2022-08-19T12:55:06;18.42;;;11.40;;
30613;SDS011;17381;51.690;5.270;2022-08-19T12:58:02;21.55;;;12.23;;
30613;SDS011;17381;51.690;5.270;2022-08-19T13:01:11;20.77;;;12.80;;
30613;SDS011;17381;51.690;5.270;2022-08-19T13:04:19;32.00;;;18.10;;
30613;SDS011;17381;51.690;5.270;2022-08-19T13:07:26;31.50;;;18.83;;
30613;SDS011;17381;51.690;5.270;2022-08-19T13:18:42;22.92;;;14.02;;
30613;SDS011;17381;51.690;5.270;2022-08-19T13:25:42;19.33;;;11.85;;
30613;SDS011;17381;51.690;5.270;2022-08-19T13:29:01;17.60;;;10.35;;
30613;SDS011;17381;51.690;5.270;2022-08-19T13:32:22;19.83;;;10.52;;
30613;SDS011;17381;51.690;5.270;2022-08-19T13:35:22;15.50;;;8.90;;
30613;SDS011;17381;51.690;5.270;2022-08-19T13:38:41;15.60;;;9.57;;
30613;SDS011;17381;51.690;5.270;2022-08-19T13:41:36;16.58;;;9.57;;
30613;SDS011;17381;51.690;5.270;2022-08-19T13:44:45;16.85;;;10.73;;
30613;SDS011;17381;51.690;5.270;2022-08-19T13:47:42;18.77;;;10.65;;
30613;SDS011;17381;51.690;5.270;2022-08-19T13:50:46;17.77;;;11.30;;
30613;SDS011;17381;51.690;5.270;2022-08-19T13:53:54;17.77;;;11.13;;
30613;SDS011;17381;51.690;5.270;2022-08-19T13:56:54;16.30;;;10.40;;
30613;SDS011;17381;51.690;5.270;2022-08-19T13:59:50;13.25;;;9.02;;
30613;SDS011;17381;51.690;5.270;2022-08-19T14:02:57;17.23;;;9.98;;
30613;SDS011;17381;51.690;5.270;2022-08-19T14:05:54;15.70;;;9.05;;
30613;SDS011;17381;51.690;5.270;2022-08-19T14:08:54;14.95;;;9.57;;
30613;SDS011;17381;51.690;5.270;2022-08-19T14:11:59;16.23;;;9.68;;
30613;SDS011;17381;51.690;5.270;2022-08-19T14:14:51;16.63;;;9.13;;
30613;SDS011;17381;51.690;5.270;2022-08-19T14:17:45;12.77;;;7.50;;
30613;SDS011;17381;51.690;5.270;2022-08-19T14:20:59;11.95;;;6.85;;
30613;SDS011;17381;51.690;5.270;2022-08-19T14:24:00;8.35;;;5.30;;
30613;SDS011;17381;51.690;5.270;2022-08-19T14:30:51;5.47;;;3.05;;
30613;SDS011;17381;51.690;5.270;2022-08-19T14:33:59;5.40;;;2.95;;
30613;SDS011;17381;51.690;5.270;2022-08-19T14:37:12;4.93;;;2.80;;
30613;SDS011;17381;51.690;5.270;2022-08-19T14:40:07;4.80;;;2.85;;
30613;SDS011;17381;51.690;5.270;2022-08-19T14:46:38;3.20;;;1.80;;
30613;SDS011;17381;51.690;5.270;2022-08-19T14:49:58;3.58;;;1.90;;
30613;SDS011;17381;51.690;5.270;2022-08-19T14:52:56;3.80;;;1.95;;
30613;SDS011;17381;51.690;5.270;2022-08-19T14:55:53;4.55;;;2.53;;
30613;SDS011;17381;51.690;5.270;2022-08-19T14:59:05;4.78;;;2.20;;
30613;SDS011;17381;51.690;5.270;2022-08-19T15:05:02;5.82;;;3.47;;
30613;SDS011;17381;51.690;5.270;2022-08-19T15:08:01;5.90;;;3.35;;
30613;SDS011;17381;51.690;5.270;2022-08-19T15:11:19;7.95;;;4.03;;
30613;SDS011;17381;51.690;5.270;2022-08-19T15:14:53;8.38;;;4.90;;
30613;SDS011;17381;51.690;5.270;2022-08-19T15:20:31;8.90;;;5.05;;
30613;SDS011;17381;51.690;5.270;2022-08-19T15:53:06;11.45;;;5.63;;
30613;SDS011;17381;51.690;5.270;2022-08-19T15:56:02;10.63;;;6.10;;
30613;SDS011;17381;51.690;5.270;2022-08-19T15:58:37;8.77;;;4.70;;
30613;SDS011;17381;51.690;5.270;2022-08-19T16:01:35;9.80;;;5.43;;
30613;SDS011;17381;51.690;5.270;2022-08-19T16:04:27;10.18;;;5.63;;
30613;SDS011;17381;51.690;5.270;2022-08-19T16:07:17;10.77;;;6.60;;
30613;SDS011;17381;51.690;5.270;2022-08-19T16:10:35;10.60;;;5.50;;
30613;SDS011;17381;51.690;5.270;2022-08-19T16:13:23;13.82;;;5.72;;
30613;SDS011;17381;51.690;5.270;2022-08-19T16:31:53;9.40;;;5.47;;
30613;SDS011;17381;51.690;5.270;2022-08-19T16:34:41;10.30;;;5.78;;
30613;SDS011;17381;51.690;5.270;2022-08-19T16:37:21;11.73;;;5.88;;
30613;SDS011;17381;51.690;5.270;2022-08-19T16:40:01;9.90;;;5.78;;
30613;SDS011;17381;51.690;5.270;2022-08-19T16:42:48;9.68;;;5.32;;
30613;SDS011;17381;51.690;5.270;2022-08-19T16:45:30;9.48;;;4.80;;
30613;SDS011;17381;51.690;5.270;2022-08-19T16:48:16;10.18;;;5.65;;
30613;SDS011;17381;51.690;5.270;2022-08-19T16:51:41;10.07;;;4.70;;
30613;SDS011;17381;51.690;5.270;2022-08-19T16:54:34;8.05;;;4.97;;
30613;SDS011;17381;51.690;5.270;2022-08-19T16:57:23;9.93;;;5.45;;
30613;SDS011;17381;51.690;5.270;2022-08-19T17:00:24;8.98;;;5.68;;
30613;SDS011;17381;51.690;5.270;2022-08-19T17:03:09;11.35;;;4.50;;
30613;SDS011;17381;51.690;5.270;2022-08-19T17:05:58;7.45;;;3.78;;
30613;SDS011;17381;51.690;5.270;2022-08-19T17:15:53;6.30;;;3.50;;
30613;SDS011;17381;51.690;5.270;2022-08-19T17:25:15;5.68;;;3.33;;
30613;SDS011;17381;51.690;5.270;2022-08-19T17:28:35;6.05;;;3.28;;
30613;SDS011;17381;51.690;5.270;2022-08-19T17:31:34;4.30;;;2.53;;
30613;SDS011;17381;51.690;5.270;2022-08-19T17:34:35;5.82;;;3.15;;
30613;SDS011;17381;51.690;5.270;2022-08-19T17:37:27;4.60;;;2.83;;
30613;SDS011;17381;51.690;5.270;2022-08-19T17:40:27;5.28;;;2.65;;
30613;SDS011;17381;51.690;5.270;2022-08-19T17:43:37;5.65;;;3.20;;
30613;SDS011;17381;51.690;5.270;2022-08-19T17:46:31;5.20;;;2.83;;
30613;SDS011;17381;51.690;5.270;2022-08-19T17:56:09;4.72;;;2.88;;
30613;SDS011;17381;51.690;5.270;2022-08-19T17:58:53;4.80;;;2.72;;
30613;SDS011;17381;51.690;5.270;2022-08-19T18:01:25;4.80;;;2.45;;
30613;SDS011;17381;51.690;5.270;2022-08-19T18:07:48;4.93;;;2.72;;
30613;SDS011;17381;51.690;5.270;2022-08-19T18:10:50;5.82;;;2.58;;
30613;SDS011;17381;51.690;5.270;2022-08-19T18:13:52;5.22;;;2.83;;
30613;SDS011;17381;51.690;5.270;2022-08-19T18:17:44;5.85;;;2.80;;
30613;SDS011;17381;51.690;5.270;2022-08-19T18:20:43;5.50;;;3.10;;
30613;SDS011;17381;51.690;5.270;2022-08-19T18:27:05;5.45;;;2.50;;
30613;SDS011;17381;51.690;5.270;2022-08-19T18:29:42;5.50;;;2.63;;
30613;SDS011;17381;51.690;5.270;2022-08-19T18:32:19;5.63;;;3.47;;
30613;SDS011;17381;51.690;5.270;2022-08-19T18:38:06;6.50;;;2.78;;
30613;SDS011;17381;51.690;5.270;2022-08-19T18:48:35;4.00;;;2.08;;
30613;SDS011;17381;51.690;5.270;2022-08-19T19:06:28;4.78;;;2.22;;
30613;SDS011;17381;51.690;5.270;2022-08-19T19:09:19;4.10;;;2.10;;
30613;SDS011;17381;51.690;5.270;2022-08-19T19:12:01;4.38;;;2.35;;
30613;SDS011;17381;51.690;5.270;2022-08-19T20:43:45;6.05;;;2.78;;
30613;SDS011;17381;51.690;5.270;2022-08-19T20:54:22;4.90;;;2.50;;
30613;SDS011;17381;51.690;5.270;2022-08-19T20:57:18;4.15;;;2.30;;
30613;SDS011;17381;51.690;5.270;2022-08-19T20:59:53;4.18;;;2.28;;
30613;SDS011;17381;51.690;5.270;2022-08-19T21:02:28;5.32;;;2.55;;
30613;SDS011;17381;51.690;5.270;2022-08-19T21:04:57;4.88;;;2.05;;
30613;SDS011;17381;51.690;5.270;2022-08-19T21:07:31;4.57;;;2.58;;
30613;SDS011;17381;51.690;5.270;2022-08-19T21:10:20;5.00;;;2.50;;
30613;SDS011;17381;51.690;5.270;2022-08-19T21:12:59;4.13;;;2.45;;
30613;SDS011;17381;51.690;5.270;2022-08-19T21:15:52;5.13;;;2.88;;
30613;SDS011;17381;51.690;5.270;2022-08-19T21:36:44;6.38;;;3.03;;
30613;SDS011;17381;51.690;5.270;2022-08-19T21:39:32;4.50;;;2.80;;
30613;SDS011;17381;51.690;5.270;2022-08-19T21:42:22;4.55;;;2.40;;
30613;SDS011;17381;51.690;5.270;2022-08-19T21:45:08;4.90;;;2.63;;
30613;SDS011;17381;51.690;5.270;2022-08-19T21:47:58;4.70;;;2.53;;
30613;SDS011;17381;51.690;5.270;2022-08-19T21:57:28;5.30;;;2.17;;
30613;SDS011;17381;51.690;5.270;2022-08-19T22:00:20;4.32;;;2.72;;
30613;SDS011;17381;51.690;5.270;2022-08-19T22:02:59;4.15;;;2.13;;
30613;SDS011;17381;51.690;5.270;2022-08-19T22:05:43;4.22;;;2.30;;
30613;SDS011;17381;51.690;5.270;2022-08-19T22:08:32;3.95;;;2.40;;
30613;SDS011;17381;51.690;5.270;2022-08-19T22:27:00;5.63;;;2.70;;
30613;SDS011;17381;51.690;5.270;2022-08-19T22:29:38;3.80;;;2.22;;
30613;SDS011;17381;51.690;5.270;2022-08-19T22:32:34;5.53;;;2.60;;
30613;SDS011;17381;51.690;5.270;2022-08-19T22:35:20;4.45;;;2.33;;
30613;SDS011;17381;51.690;5.270;2022-08-19T22:38:12;4.32;;;2.40;;
30613;SDS011;17381;51.690;5.270;2022-08-19T22:41:17;4.95;;;1.98;;
30613;SDS011;17381;51.690;5.270;2022-08-19T22:43:59;5.00;;;2.55;;
30613;SDS011;17381;51.690;5.270;2022-08-19T22:46:32;4.72;;;2.58;;
30613;SDS011;17381;51.690;5.270;2022-08-19T22:49:08;6.10;;;2.38;;
30613;SDS011;17381;51.690;5.270;2022-08-19T22:59:21;3.63;;;1.98;;
30613;SDS011;17381;51.690;5.270;2022-08-19T23:02:02;4.40;;;1.85;;
30613;SDS011;17381;51.690;5.270;2022-08-19T23:04:43;5.15;;;2.40;;
30613;SDS011;17381;51.690;5.270;2022-08-19T23:07:25;5.07;;;2.08;;
30613;SDS011;17381;51.690;5.270;2022-08-19T23:17:16;6.05;;;2.33;;
30613;SDS011;17381;51.690;5.270;2022-08-19T23:20:08;3.47;;;1.90;;
30613;SDS011;17381;51.690;5.270;2022-08-19T23:23:15;4.03;;;1.98;;
30613;SDS011;17381;51.690;5.270;2022-08-19T23:26:03;5.03;;;2.47;;
30613;SDS011;17381;51.690;5.270;2022-08-19T23:35:36;6.70;;;2.50;;
30613;SDS011;17381;51.690;5.270;2022-08-19T23:38:20;4.43;;;2.83;;
30613;SDS011;17381;51.690;5.270;2022-08-19T23:41:06;4.90;;;2.70;;
30613;SDS011;17381;51.690;5.270;2022-08-19T23:44:02;4.10;;;2.28;;
30613;SDS011;17381;51.690;5.270;2022-08-19T23:46:41;4.40;;;2.40;;
30613;SDS011;17381;51.690;5.270;2022-08-19T23:49:43;5.30;;;2.70;;
30613;SDS011;17381;51.690;5.270;2022-08-19T23:52:23;9.50;;;3.38;;
30613;SDS011;17381;51.690;5.270;2022-08-19T23:55:04;5.10;;;2.40;;
30613;SDS011;17381;51.690;5.270;2022-08-19T23:57:43;4.53;;;2.30;;
